Oleiros, Spain
Current Conditions -  °F | °C
As of 11:00 AM on Friday 19 Dec 2014 (Local Time) from LECO Reporting Station
Broken Clouds Broken Clouds  
Wind Chill: 52°   Ceiling: 3000
Heat Index: 52°   Visibility: 6mi
Dew Point: 46°   Wind: 7mph
Humidity: 82%   Direction: 200°SSW
Pressure: 30.53"   Gusts: NA
Location:  43.33°N, 8.32°W
Report Text: LECO 191000Z 20006KT 170V230 9999 FEW020 BKN030 11/08 Q1034 NOSIG
Loading
Personal Weather Stations






























Interactive Weather Map New forecast layout! Learn more

10-Day Weather Forecast

Advertisements
Track Severe Weather on mobile